Time;durP1;ratioP1;P1;durP2;ratioP2;P2;SDS_P1;SDS_P2;PMS_P1;PMS_P2;Temp;Humidity;BMP_temperature;BMP_pressure;BME280_temperature;BME280_humidity;BME280_pressure;Samples;Min_cycle;Max_cycle;Signal;HPM_P1;HPM_P2
2023/07/22 00:00:50;;;;;;;;;;;;;;;18.00;100.00;-18511.66;5025685;28;19921;-75
2023/07/22 00:03:15;;;;;;;;;;;;;;;18.06;100.00;-18513.16;5064760;28;19970;-74
2023/07/22 00:05:40;;;;;;;;;;;;;;;18.02;100.00;-18512.06;5083496;28;20371;-78
2023/07/22 00:08:06;;;;;;;;;;;;;;;17.98;100.00;-18510.97;5070040;28;20064;-79
2023/07/22 00:10:31;;;;;;;;;;;;;;;18.11;100.00;-18514.53;5086527;28;19916;-78
2023/07/22 00:12:56;;;;;;;;;;;;;;;17.98;100.00;-18510.97;5082307;28;19924;-77
2023/07/22 00:15:23;;;;;;;;;;;;;;;18.04;100.00;-18512.63;5081785;28;19950;-77
2023/07/22 00:17:49;;;;;;;;;;;;;;;18.03;100.00;-18512.47;5086757;28;20353;-75
2023/07/22 00:20:14;;;;;;;;;;;;;;;18.02;100.00;-18512.22;5076615;28;19916;-77
2023/07/22 00:22:40;;;;;;;;;;;;;;;17.97;100.00;-18510.84;5079150;28;19974;-77
2023/07/22 00:25:12;;;;;;;;;;;;;;;17.95;100.00;-18510.16;5078226;28;19920;-76
2023/07/22 00:27:37;;;;;;;;;;;;;;;17.92;100.00;-18509.34;5079451;28;19923;-77
2023/07/22 00:30:03;;;;;;;;;;;;;;;17.99;100.00;-18511.41;5073065;28;19943;-76
2023/07/22 00:32:29;;;;;;;;;;;;;;;17.88;100.00;-18508.25;5074142;28;19923;-78
2023/07/22 00:34:54;;;;;;;;;;;;;;;17.87;100.00;-18507.97;5073431;28;19924;-76
2023/07/22 00:37:19;;;;;;;;;;;;;;;17.77;100.00;-18505.53;5079710;28;19916;-77
2023/07/22 00:39:44;;;;;;;;;;;;;;;17.63;100.00;-18501.56;5077818;28;19927;-76
2023/07/22 00:42:10;;;;;;;;;;;;;;;17.52;100.00;-18498.69;5078917;28;19916;-77
2023/07/22 00:44:36;;;;;;;;;;;;;;;17.42;100.00;-18495.97;5075642;28;19949;-75
2023/07/22 00:47:02;;;;;;;;;;;;;;;17.40;100.00;-18495.56;5074184;28;19920;-75
2023/07/22 00:49:29;;;;;;;;;;;;;;;17.59;100.00;-18500.59;5079234;28;20445;-76
2023/07/22 00:51:55;;;;;;;;;;;;;;;17.62;100.00;-18501.44;5076719;28;20018;-76
2023/07/22 00:54:21;;;;;;;;;;;;;;;17.65;100.00;-18502.25;5076608;28;19916;-79
2023/07/22 00:56:47;;;;;;;;;;;;;;;17.57;100.00;-18500.06;5077628;28;19924;-76
2023/07/22 00:59:13;;;;;;;;;;;;;;;17.46;100.00;-18497.06;5078897;28;20296;-76
2023/07/22 01:01:40;;;;;;;;;;;;;;;17.51;100.00;-18498.56;5075459;28;19919;-75
2023/07/22 01:04:05;;;;;;;;;;;;;;;17.58;100.00;-18500.34;5076528;28;20350;-77
2023/07/22 01:06:30;;;;;;;;;;;;;;;17.44;100.00;-18496.50;5076549;28;19916;-77
2023/07/22 01:08:59;;;;;;;;;;;;;;;17.37;100.00;-18494.75;5081652;28;20372;-75
2023/07/22 01:11:24;;;;;;;;;;;;;;;17.32;100.00;-18493.50;5075423;28;21177;-76
2023/07/22 01:13:49;;;;;;;;;;;;;;;17.39;100.00;-18495.28;5077132;28;20006;-76
2023/07/22 01:16:15;;;;;;;;;;;;;;;17.13;100.00;-18488.47;5074658;28;20628;-76
2023/07/22 01:18:41;;;;;;;;;;;;;;;17.08;100.00;-18486.97;5076768;28;20103;-76
2023/07/22 01:21:07;;;;;;;;;;;;;;;17.35;100.00;-18494.34;5077775;28;19969;-76
2023/07/22 01:23:32;;;;;;;;;;;;;;;17.28;100.00;-18492.41;5079433;28;19924;-76
2023/07/22 01:25:58;;;;;;;;;;;;;;;17.28;100.00;-18492.28;5077074;28;19916;-76
2023/07/22 01:28:23;;;;;;;;;;;;;;;17.29;100.00;-18492.56;5076126;28;19920;-76
2023/07/22 01:30:49;;;;;;;;;;;;;;;17.10;100.00;-18487.50;5079600;28;20505;-76
2023/07/22 01:33:14;;;;;;;;;;;;;;;17.27;100.00;-18492.00;5066910;28;20295;-76
2023/07/22 01:35:39;;;;;;;;;;;;;;;17.51;100.00;-18498.44;5080599;28;20657;-76
2023/07/22 01:38:04;;;;;;;;;;;;;;;17.54;100.00;-18499.38;5079441;28;19928;-77
2023/07/22 01:40:31;;;;;;;;;;;;;;;17.68;100.00;-18503.06;5073888;28;19963;-76
2023/07/22 01:42:56;;;;;;;;;;;;;;;17.52;100.00;-18498.69;5076598;28;20370;-76
2023/07/22 01:45:21;;;;;;;;;;;;;;;17.57;100.00;-18500.06;5075625;28;19924;-76
2023/07/22 01:47:46;;;;;;;;;;;;;;;17.75;100.00;-18504.97;5075234;28;19963;-77
2023/07/22 01:50:12;;;;;;;;;;;;;;;17.63;100.00;-18501.56;5082594;28;19934;-76
2023/07/22 01:52:38;;;;;;;;;;;;;;;17.59;100.00;-18500.59;5078761;28;19965;-76
2023/07/22 01:55:05;;;;;;;;;;;;;;;17.67;100.00;-18502.78;5079965;28;20372;-76
2023/07/22 01:57:31;;;;;;;;;;;;;;;17.75;100.00;-18504.84;5086525;28;19922;-76
2023/07/22 01:59:56;;;;;;;;;;;;;;;17.80;100.00;-18506.34;5070419;28;20362;-76
2023/07/22 02:02:21;;;;;;;;;;;;;;;17.84;100.00;-18507.16;5082192;28;19917;-76
2023/07/22 02:04:46;;;;;;;;;;;;;;;18.05;100.00;-18512.91;5063295;28;19981;-76
2023/07/22 02:07:11;;;;;;;;;;;;;;;18.04;100.00;-18512.63;5077893;28;19970;-76
2023/07/22 02:09:37;;;;;;;;;;;;;;;18.15;100.00;-18515.63;5070055;28;19919;-76
2023/07/22 02:12:02;;;;;;;;;;;;;;;18.23;100.00;-18517.81;5074923;28;19912;-76
2023/07/22 02:14:27;;;;;;;;;;;;;;;18.28;100.00;-18519.03;5077638;28;19912;-76
2023/07/22 02:16:53;;;;;;;;;;;;;;;18.26;100.00;-18518.63;5081768;28;19916;-76
2023/07/22 02:19:18;;;;;;;;;;;;;;;18.27;100.00;-18518.91;5077489;28;19943;-76
2023/07/22 02:21:43;;;;;;;;;;;;;;;18.38;100.00;-18521.63;5080535;28;19916;-75
2023/07/22 02:24:09;;;;;;;;;;;;;;;18.29;100.00;-18519.16;5080275;28;19912;-75
2023/07/22 02:26:34;;;;;;;;;;;;;;;18.35;100.00;-18520.81;5080514;28;20015;-76
2023/07/22 02:29:00;;;;;;;;;;;;;;;18.44;100.00;-18523.25;5080298;28;20018;-76
2023/07/22 02:31:25;;;;;;;;;;;;;;;18.27;100.00;-18518.91;5060391;28;19970;-76
2023/07/22 02:33:50;;;;;;;;;;;;;;;18.33;100.00;-18520.25;5079733;28;19920;-76
2023/07/22 02:36:16;;;;;;;;;;;;;;;18.18;100.00;-18516.31;5081355;28;19916;-76
2023/07/22 02:38:41;;;;;;;;;;;;;;;18.21;100.00;-18517.25;5083865;28;19967;-77
2023/07/22 02:41:07;;;;;;;;;;;;;;;18.21;100.00;-18517.13;5076634;28;19961;-76
2023/07/22 02:43:33;;;;;;;;;;;;;;;18.14;100.00;-18515.34;5062709;28;19912;-77
2023/07/22 02:46:02;;;;;;;;;;;;;;;17.97;100.00;-18510.72;5076419;28;19915;-76
2023/07/22 02:48:27;;;;;;;;;;;;;;;18.25;100.00;-18518.22;5074321;28;19912;-76
2023/07/22 02:50:53;;;;;;;;;;;;;;;18.08;100.00;-18513.72;5075857;28;19957;-76
2023/07/22 02:53:19;;;;;;;;;;;;;;;18.16;100.00;-18515.75;5065092;28;19916;-76
2023/07/22 02:55:46;;;;;;;;;;;;;;;18.06;100.00;-18513.03;5082240;28;19916;-75
2023/07/22 02:58:11;;;;;;;;;;;;;;;18.17;100.00;-18516.03;5076194;28;19943;-76
2023/07/22 03:00:36;;;;;;;;;;;;;;;18.16;100.00;-18515.75;5079438;28;20283;-76
2023/07/22 03:03:02;;;;;;;;;;;;;;;18.35;100.00;-18520.81;5076035;28;19923;-76
2023/07/22 03:05:30;;;;;;;;;;;;;;;18.36;100.00;-18521.06;5075342;28;19924;-75
2023/07/22 03:07:56;;;;;;;;;;;;;;;18.27;100.00;-18518.91;5058531;28;20347;-76
2023/07/22 03:10:22;;;;;;;;;;;;;;;18.26;100.00;-18518.63;5078729;28;19916;-77
2023/07/22 03:12:47;;;;;;;;;;;;;;;18.25;100.00;-18518.34;5064303;28;19916;-75
2023/07/22 03:15:12;;;;;;;;;;;;;;;18.24;100.00;-18518.06;5061516;28;19912;-75
2023/07/22 03:17:38;;;;;;;;;;;;;;;18.08;100.00;-18513.56;5078093;28;19912;-75
2023/07/22 03:22:58;;;;;;;;;;;;;;;18.14;100.00;-18515.34;5064054;28;19962;-75
2023/07/22 03:25:23;;;;;;;;;;;;;;;17.96;100.00;-18510.44;5075304;28;19971;-75
2023/07/22 03:27:48;;;;;;;;;;;;;;;17.87;100.00;-18507.97;5074814;28;19924;-77
2023/07/22 03:30:14;;;;;;;;;;;;;;;17.77;100.00;-18505.53;5079713;28;19920;-76
2023/07/22 03:32:40;;;;;;;;;;;;;;;17.84;100.00;-18507.16;5063884;28;19916;-76
2023/07/22 03:35:08;;;;;;;;;;;;;;;17.80;100.00;-18506.22;5076809;28;19920;-75
2023/07/22 03:37:35;;;;;;;;;;;;;;;17.73;100.00;-18504.28;5071998;28;19927;-75
2023/07/22 03:40:01;;;;;;;;;;;;;;;17.86;100.00;-18507.84;5073051;28;20007;-74
2023/07/22 03:42:26;;;;;;;;;;;;;;;17.89;100.00;-18508.53;5074246;28;20049;-75
2023/07/22 03:44:51;;;;;;;;;;;;;;;17.91;100.00;-18509.06;5079766;28;19912;-75
2023/07/22 03:47:16;;;;;;;;;;;;;;;17.89;100.00;-18508.53;5079134;28;19919;-75
2023/07/22 03:49:42;;;;;;;;;;;;;;;17.65;100.00;-18502.25;5073324;28;20010;-73
2023/07/22 03:52:07;;;;;;;;;;;;;;;17.70;100.00;-18503.63;5074108;28;19923;-76
2023/07/22 03:54:32;;;;;;;;;;;;;;;17.69;100.00;-18503.19;5072371;28;19919;-75
2023/07/22 03:56:57;;;;;;;;;;;;;;;17.51;100.00;-18498.44;5067916;28;20338;-77
2023/07/22 03:59:23;;;;;;;;;;;;;;;17.37;100.00;-18494.88;5081765;28;20017;-75
2023/07/22 04:01:48;;;;;;;;;;;;;;;17.47;100.00;-18497.34;5077901;28;19974;-76
2023/07/22 04:04:13;;;;;;;;;;;;;;;17.46;100.00;-18497.19;5076838;28;20367;-77
2023/07/22 04:06:39;;;;;;;;;;;;;;;17.45;100.00;-18496.91;5071841;28;19991;-76
2023/07/22 04:09:04;;;;;;;;;;;;;;;17.39;100.00;-18495.16;5074902;28;19923;-76
2023/07/22 04:11:29;;;;;;;;;;;;;;;17.44;100.00;-18496.66;5077112;28;19966;-76
2023/07/22 04:13:54;;;;;;;;;;;;;;;17.47;100.00;-18497.47;5050650;28;19913;-77
2023/07/22 04:16:20;;;;;;;;;;;;;;;17.34;100.00;-18493.91;5061027;28;19912;-75
2023/07/22 04:18:45;;;;;;;;;;;;;;;17.30;100.00;-18492.97;5070235;28;19959;-75
2023/07/22 04:21:10;;;;;;;;;;;;;;;17.36;100.00;-18494.59;5069030;28;19943;-77
2023/07/22 04:23:35;;;;;;;;;;;;;;;17.43;100.00;-18496.25;5076962;28;20429;-76
2023/07/22 04:26:02;;;;;;;;;;;;;;;17.33;100.00;-18493.78;5078987;28;20405;-76
2023/07/22 04:28:27;;;;;;;;;;;;;;;17.39;100.00;-18495.28;5077600;28;19923;-75
2023/07/22 04:30:57;;;;;;;;;;;;;;;17.41;100.00;-18495.84;5078933;28;19912;-75
2023/07/22 04:33:23;;;;;;;;;;;;;;;17.50;100.00;-18498.16;5078917;28;19939;-78
2023/07/22 04:35:48;;;;;;;;;;;;;;;17.59;100.00;-18500.75;5076576;28;20379;-76
2023/07/22 04:38:13;;;;;;;;;;;;;;;17.63;100.00;-18501.56;5075603;28;19952;-76
2023/07/22 04:40:42;;;;;;;;;;;;;;;17.56;100.00;-18499.94;5076512;28;19985;-76
2023/07/22 04:43:07;;;;;;;;;;;;;;;17.69;100.00;-18503.34;5079557;28;19927;-76
2023/07/22 04:45:34;;;;;;;;;;;;;;;17.58;100.00;-18500.47;5084509;28;19916;-77
2023/07/22 04:47:59;;;;;;;;;;;;;;;17.62;100.00;-18501.44;5078966;28;20016;-75
2023/07/22 04:50:25;;;;;;;;;;;;;;;17.87;100.00;-18508.13;5080029;28;19916;-77
2023/07/22 04:52:50;;;;;;;;;;;;;;;17.67;100.00;-18502.66;5081202;28;19916;-76
2023/07/22 04:55:15;;;;;;;;;;;;;;;17.76;100.00;-18505.25;5064591;28;20379;-76
2023/07/22 04:57:41;;;;;;;;;;;;;;;17.92;100.00;-18509.34;5064288;28;19924;-77
2023/07/22 05:00:11;;;;;;;;;;;;;;;17.85;100.00;-18507.44;5080132;28;19995;-77
2023/07/22 05:02:37;;;;;;;;;;;;;;;17.95;100.00;-18510.16;5075286;28;19930;-76
2023/07/22 05:05:02;;;;;;;;;;;;;;;17.92;100.00;-18509.34;5082341;28;19916;-74
2023/07/22 05:07:28;;;;;;;;;;;;;;;17.95;100.00;-18510.16;5080322;28;20339;-76
2023/07/22 05:09:53;;;;;;;;;;;;;;;17.90;100.00;-18508.94;5058971;28;19928;-76
2023/07/22 05:12:18;;;;;;;;;;;;;;;18.20;100.00;-18516.84;5079685;28;19920;-76
2023/07/22 05:14:45;;;;;;;;;;;;;;;18.17;100.00;-18516.16;5064915;28;19969;-78
2023/07/22 05:17:10;;;;;;;;;;;;;;;18.14;100.00;-18515.34;5071221;28;19916;-77
2023/07/22 05:19:35;;;;;;;;;;;;;;;18.20;100.00;-18516.97;5062552;28;19930;-76
2023/07/22 05:22:01;;;;;;;;;;;;;;;18.27;100.00;-18518.75;5073913;28;19970;-75
2023/07/22 05:24:26;;;;;;;;;;;;;;;18.25;100.00;-18518.34;5078698;28;19999;-76
2023/07/22 05:26:52;;;;;;;;;;;;;;;18.27;100.00;-18518.91;5064290;28;20347;-76
2023/07/22 05:29:17;;;;;;;;;;;;;;;18.50;100.00;-18524.91;5080054;28;19923;-76
2023/07/22 05:31:42;;;;;;;;;;;;;;;18.23;100.00;-18517.81;5065471;28;19918;-76
2023/07/22 05:34:07;;;;;;;;;;;;;;;18.13;100.00;-18514.94;5064637;28;20007;-76
2023/07/22 05:36:33;;;;;;;;;;;;;;;18.12;100.00;-18514.66;5079764;28;19912;-75
2023/07/22 05:38:58;;;;;;;;;;;;;;;18.18;100.00;-18516.44;5077858;28;19924;-76
2023/07/22 05:41:23;;;;;;;;;;;;;;;18.27;100.00;-18518.75;5079472;28;19937;-75
2023/07/22 05:43:48;;;;;;;;;;;;;;;18.33;100.00;-18520.25;5082350;28;19915;-77
2023/07/22 05:46:14;;;;;;;;;;;;;;;18.35;100.00;-18520.81;5078691;28;19916;-76
2023/07/22 05:48:39;;;;;;;;;;;;;;;18.48;100.00;-18524.34;5084451;28;19916;-75
2023/07/22 05:51:04;;;;;;;;;;;;;;;18.48;100.00;-18524.47;5064395;28;19912;-76
2023/07/22 05:53:30;;;;;;;;;;;;;;;18.64;100.00;-18528.72;5082158;28;19941;-76
2023/07/22 05:55:55;;;;;;;;;;;;;;;18.74;100.00;-18531.31;5079164;28;19916;-76
2023/07/22 05:58:20;;;;;;;;;;;;;;;18.96;100.00;-18537.03;5077917;28;19920;-75
2023/07/22 06:00:46;;;;;;;;;;;;;;;18.85;100.00;-18534.16;5081017;28;19912;-77
2023/07/22 06:03:11;;;;;;;;;;;;;;;18.99;100.00;-18538.00;5074962;28;20525;-76
2023/07/22 06:05:37;;;;;;;;;;;;;;;19.20;100.00;-18543.44;5084907;28;19912;-75
2023/07/22 06:08:02;;;;;;;;;;;;;;;19.37;100.00;-18548.06;5083063;28;19916;-77
2023/07/22 06:10:31;;;;;;;;;;;;;;;19.51;100.00;-18551.75;5079468;28;19938;-77
2023/07/22 06:12:57;;;;;;;;;;;;;;;19.43;100.00;-18549.69;5077479;28;19920;-78
2023/07/22 06:15:23;;;;;;;;;;;;;;;19.48;100.00;-18551.06;5077264;28;19921;-77
2023/07/22 06:17:48;;;;;;;;;;;;;;;19.52;100.00;-18552.16;5074594;28;20319;-77
2023/07/22 06:20:13;;;;;;;;;;;;;;;19.59;100.00;-18554.06;5072958;28;19970;-76
2023/07/22 06:22:38;;;;;;;;;;;;;;;19.25;100.00;-18544.94;5079147;28;19923;-77
2023/07/22 06:25:07;;;;;;;;;;;;;;;19.36;100.00;-18547.78;5079581;28;19915;-76
2023/07/22 06:27:33;;;;;;;;;;;;;;;19.22;100.00;-18543.97;5087787;28;19948;-77
2023/07/22 06:29:58;;;;;;;;;;;;;;;19.24;100.00;-18544.53;5066396;28;20343;-77
2023/07/22 06:33:36;;;;;;;;;;;;;;;19.35;100.00;-18547.66;5085257;27;20538;-77
2023/07/22 06:36:01;;;;;;;;;;;;;;;19.49;100.00;-18551.34;5080501;28;19947;-77
2023/07/22 06:38:26;;;;;;;;;;;;;;;19.53;100.00;-18552.28;5094728;27;19943;-77
2023/07/22 06:40:55;;;;;;;;;;;;;;;19.50;100.00;-18551.59;5093724;27;19977;-76
2023/07/22 06:43:20;;;;;;;;;;;;;;;19.60;100.00;-18554.19;5097803;27;20027;-76
2023/07/22 06:47:03;;;;;;;;;;;;;;;19.72;100.00;-18557.34;4969013;27;19917;-76
2023/07/22 06:49:28;;;;;;;;;;;;;;;20.18;100.00;-18569.59;4997382;28;19929;-76
2023/07/22 06:51:54;;;;;;;;;;;;;;;20.34;100.00;-18573.94;5066465;28;20043;-75
2023/07/22 06:54:19;;;;;;;;;;;;;;;20.35;100.00;-18574.09;5039509;28;19925;-76
2023/07/22 06:56:44;;;;;;;;;;;;;;;20.50;100.00;-18578.16;5048778;28;19975;-77
2023/07/22 06:59:10;;;;;;;;;;;;;;;20.73;100.00;-18584.41;5051774;28;19916;-78
2023/07/22 07:01:35;;;;;;;;;;;;;;;21.04;100.00;-18592.59;5046111;28;20582;-79
2023/07/22 07:04:00;;;;;;;;;;;;;;;20.93;100.00;-18589.59;5047344;28;19921;-76
2023/07/22 07:06:25;;;;;;;;;;;;;;;20.89;100.00;-18588.50;5045529;28;19940;-77
2023/07/22 07:08:52;;;;;;;;;;;;;;;20.86;100.00;-18587.81;5039748;28;19929;-78
2023/07/22 07:11:17;;;;;;;;;;;;;;;20.87;100.00;-18588.09;5044224;28;20390;-78
2023/07/22 07:13:42;;;;;;;;;;;;;;;20.54;100.00;-18579.13;5022289;28;19927;-77
2023/07/22 07:16:27;;;;;;;;;;;;;;;20.78;100.00;-18585.66;5046265;28;19983;-78
2023/07/22 07:18:52;;;;;;;;;;;;;;;20.86;100.00;-18587.69;5070599;28;19971;-79
2023/07/22 07:21:20;;;;;;;;;;;;;;;21.09;100.00;-18593.81;5043500;28;19921;-77
2023/07/22 07:23:46;;;;;;;;;;;;;;;21.23;100.00;-18597.47;5047047;28;19924;-79
2023/07/22 07:26:11;;;;;;;;;;;;;;;21.10;100.00;-18594.22;5051027;28;20339;-76
2023/07/22 07:28:37;;;;;;;;;;;;;;;21.12;100.00;-18594.75;5041474;28;19925;-78
2023/07/22 07:31:02;;;;;;;;;;;;;;;21.13;100.00;-18595.03;5042034;28;19982;-77
2023/07/22 07:33:27;;;;;;;;;;;;;;;21.19;100.00;-18596.66;5041959;28;20010;-76
2023/07/22 07:35:53;;;;;;;;;;;;;;;21.18;100.00;-18596.25;5042568;28;19925;-77
2023/07/22 07:38:18;;;;;;;;;;;;;;;20.89;100.00;-18588.63;5048394;28;19917;-77
2023/07/22 07:40:43;;;;;;;;;;;;;;;20.95;100.00;-18590.28;5048173;28;19917;-78
2023/07/22 07:43:08;;;;;;;;;;;;;;;20.99;100.00;-18591.22;5041946;28;20011;-77
2023/07/22 07:45:35;;;;;;;;;;;;;;;21.30;100.00;-18599.38;5051015;28;19932;-78
2023/07/22 07:48:00;;;;;;;;;;;;;;;21.39;100.00;-18601.97;5046864;28;19917;-78
2023/07/22 07:50:25;;;;;;;;;;;;;;;21.37;100.00;-18601.41;5048411;28;19921;-77
2023/07/22 07:52:51;;;;;;;;;;;;;;;21.42;100.00;-18602.50;5042889;28;19975;-78
2023/07/22 07:55:16;;;;;;;;;;;;;;;21.51;99.74;-18604.97;5040390;28;19976;-78
2023/07/22 07:57:41;;;;;;;;;;;;;;;21.72;100.00;-18610.53;5023384;28;19921;-76
2023/07/22 08:00:54;;;;;;;22.90;12.23;;;;;;;21.53;99.62;-18605.50;5078492;27;20129;-73
2023/07/22 08:03:20;;;;;;;28.38;13.40;;;;;;;21.65;100.00;-18608.63;5102099;27;20115;-77
2023/07/22 08:05:46;;;;;;;22.63;12.75;;;;;;;21.62;100.00;-18608.09;5115739;28;20059;-74
2023/07/22 08:08:11;;;;;;;22.85;12.32;;;;;;;21.63;100.00;-18608.34;5118821;27;20144;-76
2023/07/22 08:10:36;;;;;;;24.83;11.95;;;;;;;21.55;99.05;-18606.19;5120698;27;20654;-76
2023/07/22 08:13:02;;;;;;;22.63;13.45;;;;;;;21.67;100.00;-18609.19;5121147;27;20402;-75
2023/07/22 08:15:28;;;;;;;22.90;12.27;;;;;;;21.63;98.18;-18608.22;5119404;27;20039;-75
2023/07/22 08:17:53;;;;;;;23.67;12.38;;;;;;;21.79;100.00;-18612.44;5116986;27;20044;-76
2023/07/22 08:20:19;;;;;;;24.42;13.15;;;;;;;21.74;100.00;-18611.22;5115772;28;20050;-76
2023/07/22 08:22:44;;;;;;;22.70;12.13;;;;;;;21.83;97.49;-18613.66;5118255;28;20666;-75
2023/07/22 08:25:09;;;;;;;23.35;11.52;;;;;;;21.83;95.70;-18613.53;5091834;28;20110;-76
2023/07/22 08:27:35;;;;;;;18.73;11.20;;;;;;;22.01;95.65;-18618.41;5120449;28;20054;-76
2023/07/22 08:30:00;;;;;;;22.10;12.70;;;;;;;22.04;95.53;-18619.22;5113774;27;20118;-77
2023/07/22 08:32:25;;;;;;;20.75;10.60;;;;;;;22.00;95.61;-18618.00;5122873;27;20077;-76
2023/07/22 08:34:51;;;;;;;22.77;12.50;;;;;;;22.13;91.94;-18621.53;5113933;27;20040;-76
2023/07/22 08:37:16;;;;;;;19.23;11.02;;;;;;;22.23;89.92;-18624.25;5119735;27;20035;-76
2023/07/22 08:39:42;;;;;;;19.70;11.10;;;;;;;22.06;89.51;-18619.63;5116037;27;20096;-76
2023/07/22 08:42:08;;;;;;;19.67;10.88;;;;;;;22.11;89.35;-18621.00;5120360;28;20528;-76
2023/07/22 08:44:40;;;;;;;21.17;11.55;;;;;;;22.18;92.24;-18622.91;5117205;27;20043;-76
2023/07/22 08:47:09;;;;;;;19.85;11.30;;;;;;;22.20;93.43;-18623.31;5118057;28;20503;-76
2023/07/22 08:49:34;;;;;;;21.00;11.53;;;;;;;22.21;91.80;-18623.72;5121193;28;20058;-75
2023/07/22 08:52:00;;;;;;;16.77;9.25;;;;;;;22.12;88.48;-18621.25;5116333;28;20063;-75
2023/07/22 08:54:27;;;;;;;14.98;8.60;;;;;;;22.35;87.73;-18627.25;5119288;27;20047;-77
2023/07/22 08:56:54;;;;;;;19.58;10.13;;;;;;;22.36;85.82;-18627.53;5119278;28;20470;-76
2023/07/22 08:59:19;;;;;;;16.63;10.30;;;;;;;22.57;87.62;-18633.09;5120341;27;20052;-75
2023/07/22 09:01:47;;;;;;;19.65;9.98;;;;;;;22.55;84.31;-18632.66;5116853;28;20399;-77
2023/07/22 09:04:13;;;;;;;19.48;10.27;;;;;;;22.50;84.19;-18631.44;5116664;27;20322;-77
2023/07/22 09:06:39;;;;;;;20.30;10.63;;;;;;;22.61;86.30;-18634.31;5118077;27;20551;-76
2023/07/22 09:09:08;;;;;;;16.40;9.75;;;;;;;22.59;86.63;-18633.75;5118955;28;20031;-76
2023/07/22 09:11:34;;;;;;;;;;;;;;;22.65;81.06;-18635.38;5103075;28;20032;-76
2023/07/22 09:14:01;;;;;;;16.25;9.00;;;;;;;22.33;82.11;-18626.84;5102783;28;19942;-76
2023/07/22 09:16:28;;;;;;;16.30;9.57;;;;;;;22.70;83.59;-18636.59;5101972;28;20117;-76
2023/07/22 09:19:00;;;;;;;18.73;9.73;;;;;;;22.79;80.76;-18638.91;5099120;28;20040;-77
2023/07/22 09:21:25;;;;;;;16.17;9.13;;;;;;;22.83;83.62;-18640.00;5083177;28;20502;-76
2023/07/22 09:23:50;;;;;;;17.08;8.63;;;;;;;22.90;82.61;-18641.91;5106586;28;20063;-77
2023/07/22 09:26:17;;;;;;;15.82;8.32;;;;;;;22.86;82.74;-18640.94;5107222;28;20031;-76
2023/07/22 09:28:58;;;;;;;16.02;9.15;;;;;;;22.94;79.03;-18643.00;5103004;28;20549;-77
2023/07/22 09:31:27;;;;;;;16.05;9.00;;;;;;;22.93;79.71;-18642.84;5099109;28;20495;-76
2023/07/22 09:33:54;;;;;;;14.85;8.43;;;;;;;22.89;81.93;-18641.78;5100997;28;20032;-77
2023/07/22 09:36:20;;;;;;;10.48;6.70;;;;;;;22.79;78.44;-18638.91;5107192;28;20038;-77
2023/07/22 09:38:45;;;;;;;15.65;8.52;;;;;;;23.00;80.82;-18644.50;5106545;28;20189;-76
2023/07/22 09:41:10;;;;;;;13.85;8.10;;;;;;;23.08;78.44;-18646.78;5103655;28;20039;-76
2023/07/22 09:43:38;;;;;;;17.23;8.63;;;;;;;23.11;78.74;-18647.59;5103806;28;20047;-77
2023/07/22 09:46:10;;;;;;;14.80;8.48;;;;;;;23.01;75.82;-18644.91;5093054;28;20399;-77
2023/07/22 09:48:44;;;;;;;15.88;9.45;;;;;;;23.08;76.18;-18646.78;5102544;28;20730;-76
2023/07/22 09:51:16;;;;;;;15.45;8.55;;;;;;;22.86;77.61;-18640.81;5106823;28;20123;-76
2023/07/22 09:53:46;;;;;;;14.18;8.38;;;;;;;22.90;78.06;-18641.91;5105384;28;20676;-77
2023/07/22 09:56:11;;;;;;;14.48;8.07;;;;;;;23.03;76.92;-18645.44;5105254;28;20054;-76
2023/07/22 09:58:38;;;;;;;11.88;7.10;;;;;;;22.98;75.00;-18644.06;5101174;28;20036;-76
2023/07/22 10:01:05;;;;;;;12.65;7.00;;;;;;;23.07;72.77;-18646.38;5105037;28;20031;-76
2023/07/22 10:03:31;;;;;;;13.05;7.75;;;;;;;23.27;71.61;-18651.81;5103699;28;20036;-76
2023/07/22 10:06:00;;;;;;;11.20;6.78;;;;;;;23.64;72.21;-18661.72;5106137;28;20039;-77
2023/07/22 10:08:29;;;;;;;12.38;7.53;;;;;;;23.67;69.12;-18662.38;5104862;27;20054;-76
2023/07/22 10:10:57;;;;;;;14.25;7.47;;;;;;;23.55;71.28;-18659.13;5106888;27;20154;-75
2023/07/22 10:13:24;;;;;;;13.13;7.63;;;;;;;23.56;71.38;-18659.53;5088324;27;20061;-76
2023/07/22 10:15:50;;;;;;;12.60;6.05;;;;;;;23.43;67.65;-18656.16;5104426;27;20042;-77
2023/07/22 10:18:17;;;;;;;12.15;6.72;;;;;;;23.26;68.41;-18651.41;5105177;27;20039;-76
2023/07/22 10:20:43;;;;;;;11.30;7.22;;;;;;;23.37;69.62;-18654.53;5105286;27;20058;-77
2023/07/22 10:23:11;;;;;;;12.20;7.40;;;;;;;23.31;70.07;-18652.91;5103677;28;20047;-76
2023/07/22 10:25:37;;;;;;;11.90;7.20;;;;;;;23.33;72.97;-18653.44;5108656;27;20059;-77
2023/07/22 10:28:03;;;;;;;11.95;7.25;;;;;;;23.34;70.64;-18653.56;5103031;27;20035;-78
2023/07/22 10:30:28;;;;;;;12.43;7.28;;;;;;;23.38;73.58;-18654.78;5100860;27;20036;-77
2023/07/22 10:32:54;;;;;;;12.43;7.05;;;;;;;23.40;70.54;-18655.22;5104238;27;20039;-76
2023/07/22 10:35:39;;;;;;;11.45;7.10;;;;;;;23.61;72.27;-18660.75;5093523;27;20050;-76
2023/07/22 10:38:12;;;;;;;11.88;6.90;;;;;;;23.48;72.30;-18657.38;5087526;28;20081;-77
2023/07/22 10:40:52;;;;;;;17.02;7.60;;;;;;;23.46;70.09;-18656.84;5101494;27;20058;-77
2023/07/22 10:43:29;;;;;;;12.48;6.82;;;;;;;23.36;70.94;-18654.13;5104312;27;20072;-76
2023/07/22 10:45:57;;;;;;;12.27;7.63;;;;;;;23.54;73.39;-18658.88;5106010;27;20047;-77
2023/07/22 10:48:37;;;;;;;12.82;7.07;;;;;;;23.60;73.56;-18660.63;5102818;27;20119;-77
2023/07/22 10:51:15;;;;;;;12.63;6.55;;;;;;;23.43;70.37;-18656.03;5100769;27;20460;-77
2023/07/22 10:53:46;;;;;;;10.65;6.55;;;;;;;23.44;68.04;-18656.28;5107291;27;20058;-77
2023/07/22 10:56:24;;;;;;;10.68;6.55;;;;;;;23.42;67.76;-18655.75;5106952;27;20123;-76
2023/07/22 10:58:52;;;;;;;10.45;6.07;;;;;;;23.59;68.62;-18660.34;5106902;27;20089;-77
2023/07/22 11:01:30;;;;;;;11.77;6.10;;;;;;;23.43;66.06;-18656.03;5103804;27;20048;-77
2023/07/22 11:04:20;;;;;;;9.45;6.30;;;;;;;23.37;64.82;-18654.53;5106794;27;20039;-77
2023/07/22 11:06:46;;;;;;;10.68;6.00;;;;;;;23.49;65.67;-18657.50;5092435;27;20055;-74
2023/07/22 11:09:35;;;;;;;10.70;5.90;;;;;;;23.45;66.56;-18656.56;5108195;27;20032;-74
2023/07/22 11:12:04;;;;;;;12.15;5.72;;;;;;;23.33;65.58;-18653.44;5105147;27;20440;-75
2023/07/22 11:14:32;;;;;;;11.65;6.68;;;;;;;23.44;67.02;-18656.28;5103356;27;20522;-77
2023/07/22 11:16:58;;;;;;;9.70;5.45;;;;;;;23.44;62.68;-18656.28;5101484;27;20110;-75
2023/07/22 11:19:25;;;;;;;10.60;5.60;;;;;;;23.48;64.00;-18657.38;5102017;27;20067;-78
2023/07/22 11:21:52;;;;;;;9.18;5.13;;;;;;;23.53;62.75;-18658.72;5105369;27;20076;-77
2023/07/22 11:24:19;;;;;;;7.70;5.45;;;;;;;23.62;61.16;-18661.16;5103734;27;20047;-76
2023/07/22 11:26:45;;;;;;;10.18;5.32;;;;;;;23.70;61.57;-18663.06;5090494;28;20507;-77
2023/07/22 11:29:11;;;;;;;9.23;6.10;;;;;;;23.74;60.91;-18664.16;5108071;27;20670;-74
2023/07/22 11:31:45;;;;;;;11.45;6.00;;;;;;;23.59;63.54;-18660.22;5102933;28;20050;-77
2023/07/22 11:34:15;;;;;;;7.82;4.75;;;;;;;23.75;65.00;-18664.56;5086656;28;20126;-77
2023/07/22 11:36:41;;;;;;;10.73;6.63;;;;;;;24.02;67.90;-18671.63;5103469;28;20044;-77
2023/07/22 11:39:12;;;;;;;10.32;6.43;;;;;;;23.91;66.57;-18668.78;5101441;28;20042;-77
2023/07/22 11:41:37;;;;;;;11.98;5.75;;;;;;;23.89;66.00;-18668.22;5090546;28;20070;-77
2023/07/22 11:44:12;;;;;;;10.63;6.35;;;;;;;23.77;65.64;-18664.97;5104633;27;20229;-74
2023/07/22 11:46:56;;;;;;;11.88;6.03;;;;;;;23.95;65.62;-18669.84;5103937;28;20054;-77
2023/07/22 11:49:36;;;;;;;15.32;7.28;;;;;;;23.90;64.43;-18668.50;5103258;27;20578;-76
2023/07/22 11:52:04;;;;;;;9.63;5.80;;;;;;;23.87;63.99;-18667.69;5106878;27;20127;-75
2023/07/22 11:54:32;;;;;;;11.05;5.65;;;;;;;23.79;62.92;-18665.66;5100977;27;20036;-76
2023/07/22 11:57:09;;;;;;;9.80;5.82;;;;;;;23.80;63.89;-18665.91;5103757;28;20043;-76
2023/07/22 11:59:38;;;;;;;8.82;4.90;;;;;;;23.83;65.41;-18666.72;5102650;28;20044;-76
2023/07/22 12:02:07;;;;;;;11.63;6.35;;;;;;;23.77;65.67;-18664.97;5101525;28;20039;-77
2023/07/22 12:04:34;;;;;;;9.75;5.65;;;;;;;23.95;65.37;-18669.84;5100496;28;20036;-76